sensor_id;sensor_type;location;lat;lon;timestamp;P1;durP1;ratioP1;P2;durP2;ratioP2
289;SDS011;13193;48.874;9.086;2022-10-16T00:01:21;5.03;;;2.07;;
289;SDS011;13193;48.874;9.086;2022-10-16T00:03:48;4.63;;;2.83;;
289;SDS011;13193;48.874;9.086;2022-10-16T00:06:16;4.33;;;1.50;;
289;SDS011;13193;48.874;9.086;2022-10-16T00:08:43;14.50;;;1.93;;
289;SDS011;13193;48.874;9.086;2022-10-16T00:11:29;2.23;;;1.57;;
289;SDS011;13193;48.874;9.086;2022-10-16T00:13:59;3.47;;;1.60;;
289;SDS011;13193;48.874;9.086;2022-10-16T00:16:26;4.00;;;1.70;;
289;SDS011;13193;48.874;9.086;2022-10-16T00:18:52;2.73;;;1.73;;
289;SDS011;13193;48.874;9.086;2022-10-16T00:21:19;4.73;;;2.03;;
289;SDS011;13193;48.874;9.086;2022-10-16T00:23:46;2.70;;;1.60;;
289;SDS011;13193;48.874;9.086;2022-10-16T00:26:15;5.70;;;1.50;;
289;SDS011;13193;48.874;9.086;2022-10-16T00:28:42;2.97;;;1.80;;
289;SDS011;13193;48.874;9.086;2022-10-16T00:31:10;10.87;;;1.70;;
289;SDS011;13193;48.874;9.086;2022-10-16T00:33:37;5.00;;;1.87;;
289;SDS011;13193;48.874;9.086;2022-10-16T00:36:04;3.33;;;1.93;;
289;SDS011;13193;48.874;9.086;2022-10-16T00:38:30;7.23;;;2.43;;
289;SDS011;13193;48.874;9.086;2022-10-16T00:40:57;13.03;;;1.80;;
289;SDS011;13193;48.874;9.086;2022-10-16T00:43:36;7.23;;;1.93;;
289;SDS011;13193;48.874;9.086;2022-10-16T00:49:01;4.60;;;1.90;;
289;SDS011;13193;48.874;9.086;2022-10-16T00:51:37;7.30;;;2.43;;
289;SDS011;13193;48.874;9.086;2022-10-16T00:54:21;7.50;;;1.80;;
289;SDS011;13193;48.874;9.086;2022-10-16T00:56:49;4.37;;;1.90;;
289;SDS011;13193;48.874;9.086;2022-10-16T00:59:18;3.80;;;1.70;;
289;SDS011;13193;48.874;9.086;2022-10-16T01:01:51;9.63;;;2.00;;
289;SDS011;13193;48.874;9.086;2022-10-16T01:04:17;7.40;;;2.07;;
289;SDS011;13193;48.874;9.086;2022-10-16T01:15:09;3.90;;;1.90;;
289;SDS011;13193;48.874;9.086;2022-10-16T01:17:45;4.30;;;2.40;;
289;SDS011;13193;48.874;9.086;2022-10-16T01:20:26;3.27;;;1.73;;
289;SDS011;13193;48.874;9.086;2022-10-16T01:31:24;3.27;;;1.67;;
289;SDS011;13193;48.874;9.086;2022-10-16T01:33:56;3.30;;;1.50;;
289;SDS011;13193;48.874;9.086;2022-10-16T01:36:41;12.90;;;3.30;;
289;SDS011;13193;48.874;9.086;2022-10-16T01:39:11;4.80;;;2.30;;
289;SDS011;13193;48.874;9.086;2022-10-16T01:41:42;3.10;;;1.40;;
289;SDS011;13193;48.874;9.086;2022-10-16T01:44:18;5.50;;;1.90;;
289;SDS011;13193;48.874;9.086;2022-10-16T01:46:47;5.90;;;2.00;;
289;SDS011;13193;48.874;9.086;2022-10-16T01:49:15;6.20;;;2.40;;
289;SDS011;13193;48.874;9.086;2022-10-16T01:51:43;3.63;;;1.60;;
289;SDS011;13193;48.874;9.086;2022-10-16T01:54:11;3.93;;;2.40;;
289;SDS011;13193;48.874;9.086;2022-10-16T01:56:41;3.00;;;1.23;;
289;SDS011;13193;48.874;9.086;2022-10-16T01:59:11;2.63;;;1.50;;
289;SDS011;13193;48.874;9.086;2022-10-16T02:01:41;3.27;;;1.80;;
289;SDS011;13193;48.874;9.086;2022-10-16T02:04:16;4.20;;;2.03;;
289;SDS011;13193;48.874;9.086;2022-10-16T02:06:52;4.13;;;1.37;;
289;SDS011;13193;48.874;9.086;2022-10-16T02:09:18;5.90;;;2.20;;
289;SDS011;13193;48.874;9.086;2022-10-16T02:11:44;7.43;;;1.90;;
289;SDS011;13193;48.874;9.086;2022-10-16T02:14:10;7.00;;;1.40;;
289;SDS011;13193;48.874;9.086;2022-10-16T02:16:37;4.60;;;1.80;;
289;SDS011;13193;48.874;9.086;2022-10-16T02:19:05;2.50;;;1.90;;
289;SDS011;13193;48.874;9.086;2022-10-16T02:27:14;6.37;;;2.10;;
289;SDS011;13193;48.874;9.086;2022-10-16T02:29:49;3.57;;;1.53;;
289;SDS011;13193;48.874;9.086;2022-10-16T02:32:23;3.50;;;2.30;;
289;SDS011;13193;48.874;9.086;2022-10-16T02:34:55;3.30;;;2.03;;
289;SDS011;13193;48.874;9.086;2022-10-16T02:37:22;2.70;;;1.40;;
289;SDS011;13193;48.874;9.086;2022-10-16T02:39:49;3.10;;;1.60;;
289;SDS011;13193;48.874;9.086;2022-10-16T02:42:17;12.73;;;1.67;;
289;SDS011;13193;48.874;9.086;2022-10-16T02:44:43;5.70;;;1.73;;
289;SDS011;13193;48.874;9.086;2022-10-16T02:47:09;6.90;;;1.77;;
289;SDS011;13193;48.874;9.086;2022-10-16T02:49:35;3.70;;;1.50;;
289;SDS011;13193;48.874;9.086;2022-10-16T02:52:00;2.53;;;1.17;;
289;SDS011;13193;48.874;9.086;2022-10-16T02:54:26;3.73;;;2.13;;
289;SDS011;13193;48.874;9.086;2022-10-16T02:56:51;3.90;;;1.93;;
289;SDS011;13193;48.874;9.086;2022-10-16T02:59:17;5.53;;;1.77;;
289;SDS011;13193;48.874;9.086;2022-10-16T03:01:43;4.60;;;2.00;;
289;SDS011;13193;48.874;9.086;2022-10-16T03:04:08;4.87;;;2.10;;
289;SDS011;13193;48.874;9.086;2022-10-16T03:06:34;2.40;;;1.23;;
289;SDS011;13193;48.874;9.086;2022-10-16T03:09:00;4.90;;;2.17;;
289;SDS011;13193;48.874;9.086;2022-10-16T03:11:26;4.30;;;1.97;;
289;SDS011;13193;48.874;9.086;2022-10-16T03:13:53;4.13;;;1.43;;
289;SDS011;13193;48.874;9.086;2022-10-16T03:16:18;3.77;;;1.47;;
289;SDS011;13193;48.874;9.086;2022-10-16T03:18:47;4.07;;;1.67;;
289;SDS011;13193;48.874;9.086;2022-10-16T03:21:14;4.23;;;1.50;;
289;SDS011;13193;48.874;9.086;2022-10-16T03:23:40;2.67;;;1.43;;
289;SDS011;13193;48.874;9.086;2022-10-16T03:26:06;9.53;;;1.80;;
289;SDS011;13193;48.874;9.086;2022-10-16T03:28:32;4.40;;;2.20;;
289;SDS011;13193;48.874;9.086;2022-10-16T03:30:57;3.37;;;1.80;;
289;SDS011;13193;48.874;9.086;2022-10-16T03:33:23;5.93;;;1.87;;
289;SDS011;13193;48.874;9.086;2022-10-16T03:35:52;4.10;;;2.10;;
289;SDS011;13193;48.874;9.086;2022-10-16T03:38:19;2.97;;;1.87;;
289;SDS011;13193;48.874;9.086;2022-10-16T03:40:45;5.80;;;1.63;;
289;SDS011;13193;48.874;9.086;2022-10-16T03:43:11;5.20;;;2.00;;
289;SDS011;13193;48.874;9.086;2022-10-16T03:45:36;6.57;;;1.80;;
289;SDS011;13193;48.874;9.086;2022-10-16T03:48:02;3.70;;;1.83;;
289;SDS011;13193;48.874;9.086;2022-10-16T03:50:28;3.80;;;1.93;;
289;SDS011;13193;48.874;9.086;2022-10-16T03:52:54;5.67;;;1.87;;
289;SDS011;13193;48.874;9.086;2022-10-16T03:55:20;4.50;;;2.03;;
289;SDS011;13193;48.874;9.086;2022-10-16T03:57:45;4.20;;;2.13;;
289;SDS011;13193;48.874;9.086;2022-10-16T04:00:11;6.30;;;1.30;;
289;SDS011;13193;48.874;9.086;2022-10-16T04:02:37;3.80;;;2.13;;
289;SDS011;13193;48.874;9.086;2022-10-16T04:05:03;9.43;;;2.17;;
289;SDS011;13193;48.874;9.086;2022-10-16T04:07:29;6.10;;;1.93;;
289;SDS011;13193;48.874;9.086;2022-10-16T04:09:55;2.97;;;1.87;;
289;SDS011;13193;48.874;9.086;2022-10-16T04:12:20;3.30;;;2.07;;
289;SDS011;13193;48.874;9.086;2022-10-16T04:14:46;3.90;;;2.10;;
289;SDS011;13193;48.874;9.086;2022-10-16T04:17:11;6.30;;;2.13;;
289;SDS011;13193;48.874;9.086;2022-10-16T04:19:37;12.40;;;2.10;;
289;SDS011;13193;48.874;9.086;2022-10-16T04:22:02;3.70;;;1.90;;
289;SDS011;13193;48.874;9.086;2022-10-16T04:24:28;6.30;;;2.60;;
289;SDS011;13193;48.874;9.086;2022-10-16T04:26:54;3.40;;;2.13;;
289;SDS011;13193;48.874;9.086;2022-10-16T04:29:19;3.10;;;1.87;;
289;SDS011;13193;48.874;9.086;2022-10-16T04:31:45;4.73;;;2.00;;
289;SDS011;13193;48.874;9.086;2022-10-16T04:34:11;6.47;;;2.10;;
289;SDS011;13193;48.874;9.086;2022-10-16T04:36:37;3.10;;;1.80;;
289;SDS011;13193;48.874;9.086;2022-10-16T04:39:02;8.60;;;2.40;;
289;SDS011;13193;48.874;9.086;2022-10-16T04:41:28;3.07;;;1.93;;
289;SDS011;13193;48.874;9.086;2022-10-16T04:43:53;13.13;;;2.40;;
289;SDS011;13193;48.874;9.086;2022-10-16T04:46:19;19.97;;;2.50;;
289;SDS011;13193;48.874;9.086;2022-10-16T04:48:45;5.53;;;2.27;;
289;SDS011;13193;48.874;9.086;2022-10-16T04:51:11;7.07;;;2.30;;
289;SDS011;13193;48.874;9.086;2022-10-16T04:53:37;7.20;;;1.53;;
289;SDS011;13193;48.874;9.086;2022-10-16T04:56:02;4.40;;;2.23;;
289;SDS011;13193;48.874;9.086;2022-10-16T04:58:28;4.80;;;1.83;;
289;SDS011;13193;48.874;9.086;2022-10-16T05:00:54;4.40;;;1.83;;
289;SDS011;13193;48.874;9.086;2022-10-16T05:03:19;3.13;;;1.60;;
289;SDS011;13193;48.874;9.086;2022-10-16T05:05:45;4.43;;;1.97;;
289;SDS011;13193;48.874;9.086;2022-10-16T05:08:14;3.10;;;1.90;;
289;SDS011;13193;48.874;9.086;2022-10-16T05:10:41;7.63;;;2.30;;
289;SDS011;13193;48.874;9.086;2022-10-16T05:13:07;4.37;;;2.20;;
289;SDS011;13193;48.874;9.086;2022-10-16T05:15:33;5.40;;;2.30;;
289;SDS011;13193;48.874;9.086;2022-10-16T05:17:59;6.40;;;2.37;;
289;SDS011;13193;48.874;9.086;2022-10-16T05:20:24;4.40;;;2.70;;
289;SDS011;13193;48.874;9.086;2022-10-16T05:22:50;7.60;;;2.17;;
289;SDS011;13193;48.874;9.086;2022-10-16T05:25:16;3.47;;;2.00;;
289;SDS011;13193;48.874;9.086;2022-10-16T05:27:42;4.90;;;2.40;;
289;SDS011;13193;48.874;9.086;2022-10-16T05:30:08;5.93;;;2.30;;
289;SDS011;13193;48.874;9.086;2022-10-16T05:32:34;3.37;;;2.03;;
289;SDS011;13193;48.874;9.086;2022-10-16T05:34:59;11.13;;;2.87;;
289;SDS011;13193;48.874;9.086;2022-10-16T05:37:28;5.90;;;1.93;;
289;SDS011;13193;48.874;9.086;2022-10-16T05:39:53;4.00;;;2.20;;
289;SDS011;13193;48.874;9.086;2022-10-16T05:42:19;2.53;;;1.90;;
289;SDS011;13193;48.874;9.086;2022-10-16T05:44:44;2.90;;;1.80;;
289;SDS011;13193;48.874;9.086;2022-10-16T05:47:12;4.33;;;2.17;;
289;SDS011;13193;48.874;9.086;2022-10-16T05:49:39;9.77;;;1.83;;
289;SDS011;13193;48.874;9.086;2022-10-16T05:52:04;2.70;;;1.77;;
289;SDS011;13193;48.874;9.086;2022-10-16T05:54:30;3.73;;;2.13;;
289;SDS011;13193;48.874;9.086;2022-10-16T05:56:55;7.73;;;2.43;;
289;SDS011;13193;48.874;9.086;2022-10-16T05:59:21;3.30;;;2.13;;
289;SDS011;13193;48.874;9.086;2022-10-16T06:01:47;3.70;;;2.00;;
289;SDS011;13193;48.874;9.086;2022-10-16T06:04:12;4.20;;;2.20;;
289;SDS011;13193;48.874;9.086;2022-10-16T06:06:38;3.50;;;1.90;;
289;SDS011;13193;48.874;9.086;2022-10-16T06:09:03;3.97;;;2.20;;
289;SDS011;13193;48.874;9.086;2022-10-16T06:11:35;4.20;;;2.53;;
289;SDS011;13193;48.874;9.086;2022-10-16T06:14:03;5.33;;;2.30;;
289;SDS011;13193;48.874;9.086;2022-10-16T06:16:51;4.57;;;2.30;;
289;SDS011;13193;48.874;9.086;2022-10-16T06:19:26;7.07;;;2.00;;
289;SDS011;13193;48.874;9.086;2022-10-16T06:21:56;4.53;;;2.40;;
289;SDS011;13193;48.874;9.086;2022-10-16T06:24:29;13.43;;;2.20;;
289;SDS011;13193;48.874;9.086;2022-10-16T06:26:55;4.60;;;1.70;;
289;SDS011;13193;48.874;9.086;2022-10-16T06:29:27;8.27;;;2.37;;
289;SDS011;13193;48.874;9.086;2022-10-16T06:32:08;6.23;;;2.10;;
289;SDS011;13193;48.874;9.086;2022-10-16T06:34:37;3.20;;;1.67;;
289;SDS011;13193;48.874;9.086;2022-10-16T06:37:07;4.50;;;1.90;;
289;SDS011;13193;48.874;9.086;2022-10-16T06:39:35;3.40;;;2.10;;
289;SDS011;13193;48.874;9.086;2022-10-16T06:42:01;5.87;;;2.40;;
289;SDS011;13193;48.874;9.086;2022-10-16T06:44:29;2.90;;;1.63;;
289;SDS011;13193;48.874;9.086;2022-10-16T06:47:02;7.83;;;2.00;;
289;SDS011;13193;48.874;9.086;2022-10-16T06:49:28;5.03;;;1.70;;
289;SDS011;13193;48.874;9.086;2022-10-16T06:51:56;3.23;;;1.67;;
289;SDS011;13193;48.874;9.086;2022-10-16T06:54:22;2.60;;;1.70;;
289;SDS011;13193;48.874;9.086;2022-10-16T06:56:48;3.93;;;1.60;;
289;SDS011;13193;48.874;9.086;2022-10-16T06:59:13;4.37;;;2.03;;
289;SDS011;13193;48.874;9.086;2022-10-16T07:01:39;7.00;;;1.70;;
289;SDS011;13193;48.874;9.086;2022-10-16T07:04:12;5.67;;;1.67;;
289;SDS011;13193;48.874;9.086;2022-10-16T07:06:40;4.67;;;2.27;;
289;SDS011;13193;48.874;9.086;2022-10-16T07:09:07;4.53;;;1.77;;
289;SDS011;13193;48.874;9.086;2022-10-16T07:11:37;10.40;;;1.80;;
289;SDS011;13193;48.874;9.086;2022-10-16T07:14:12;4.30;;;2.00;;
289;SDS011;13193;48.874;9.086;2022-10-16T07:16:42;6.10;;;1.40;;
289;SDS011;13193;48.874;9.086;2022-10-16T07:19:10;4.10;;;1.73;;
289;SDS011;13193;48.874;9.086;2022-10-16T07:21:38;3.37;;;1.77;;
289;SDS011;13193;48.874;9.086;2022-10-16T07:24:22;8.13;;;2.40;;
289;SDS011;13193;48.874;9.086;2022-10-16T07:26:50;5.70;;;1.93;;
289;SDS011;13193;48.874;9.086;2022-10-16T07:29:17;8.50;;;1.87;;
289;SDS011;13193;48.874;9.086;2022-10-16T07:31:47;7.37;;;2.37;;
289;SDS011;13193;48.874;9.086;2022-10-16T07:34:14;6.07;;;1.70;;
289;SDS011;13193;48.874;9.086;2022-10-16T07:36:42;5.13;;;2.47;;
289;SDS011;13193;48.874;9.086;2022-10-16T07:39:08;4.60;;;1.97;;
289;SDS011;13193;48.874;9.086;2022-10-16T07:41:36;4.90;;;1.57;;
289;SDS011;13193;48.874;9.086;2022-10-16T07:44:02;3.77;;;1.70;;
289;SDS011;13193;48.874;9.086;2022-10-16T07:46:29;4.03;;;1.90;;
289;SDS011;13193;48.874;9.086;2022-10-16T07:49:03;2.80;;;1.43;;
289;SDS011;13193;48.874;9.086;2022-10-16T07:51:31;2.90;;;1.67;;
289;SDS011;13193;48.874;9.086;2022-10-16T07:53:57;2.87;;;1.87;;
289;SDS011;13193;48.874;9.086;2022-10-16T07:56:25;2.90;;;1.43;;
289;SDS011;13193;48.874;9.086;2022-10-16T07:58:53;8.03;;;2.10;;
289;SDS011;13193;48.874;9.086;2022-10-16T08:01:18;8.80;;;1.90;;
289;SDS011;13193;48.874;9.086;2022-10-16T08:03:45;6.17;;;1.90;;
289;SDS011;13193;48.874;9.086;2022-10-16T08:06:22;6.20;;;1.50;;
289;SDS011;13193;48.874;9.086;2022-10-16T08:08:50;2.53;;;1.60;;
289;SDS011;13193;48.874;9.086;2022-10-16T08:11:18;4.00;;;1.40;;
289;SDS011;13193;48.874;9.086;2022-10-16T08:13:46;4.07;;;1.63;;
289;SDS011;13193;48.874;9.086;2022-10-16T08:16:12;5.50;;;2.00;;
289;SDS011;13193;48.874;9.086;2022-10-16T08:18:38;9.13;;;1.90;;
289;SDS011;13193;48.874;9.086;2022-10-16T08:21:05;4.93;;;1.50;;
289;SDS011;13193;48.874;9.086;2022-10-16T08:23:32;6.33;;;2.00;;
289;SDS011;13193;48.874;9.086;2022-10-16T08:26:02;2.67;;;1.20;;
289;SDS011;13193;48.874;9.086;2022-10-16T08:28:30;38.33;;;2.30;;
289;SDS011;13193;48.874;9.086;2022-10-16T08:31:04;5.80;;;2.00;;
289;SDS011;13193;48.874;9.086;2022-10-16T08:33:35;4.23;;;1.80;;
289;SDS011;13193;48.874;9.086;2022-10-16T08:36:02;3.30;;;1.70;;
289;SDS011;13193;48.874;9.086;2022-10-16T08:38:28;2.57;;;1.43;;
289;SDS011;13193;48.874;9.086;2022-10-16T08:40:55;4.87;;;1.70;;
289;SDS011;13193;48.874;9.086;2022-10-16T08:43:36;1.97;;;1.60;;
289;SDS011;13193;48.874;9.086;2022-10-16T08:46:29;2.10;;;1.40;;
289;SDS011;13193;48.874;9.086;2022-10-16T08:48:57;8.97;;;2.20;;
289;SDS011;13193;48.874;9.086;2022-10-16T08:54:01;5.50;;;1.67;;
289;SDS011;13193;48.874;9.086;2022-10-16T08:56:29;4.50;;;1.53;;
289;SDS011;13193;48.874;9.086;2022-10-16T08:58:55;3.47;;;1.40;;
289;SDS011;13193;48.874;9.086;2022-10-16T09:01:24;4.93;;;1.63;;
289;SDS011;13193;48.874;9.086;2022-10-16T09:07:12;5.00;;;1.90;;
289;SDS011;13193;48.874;9.086;2022-10-16T09:15:29;3.60;;;1.60;;
289;SDS011;13193;48.874;9.086;2022-10-16T09:23:36;5.73;;;1.57;;
289;SDS011;13193;48.874;9.086;2022-10-16T09:26:03;2.00;;;1.43;;
289;SDS011;13193;48.874;9.086;2022-10-16T09:28:30;11.83;;;1.37;;
289;SDS011;13193;48.874;9.086;2022-10-16T09:30:56;5.77;;;1.50;;
289;SDS011;13193;48.874;9.086;2022-10-16T09:33:25;4.37;;;2.03;;
289;SDS011;13193;48.874;9.086;2022-10-16T09:35:56;5.43;;;1.80;;
289;SDS011;13193;48.874;9.086;2022-10-16T09:38:31;2.73;;;1.50;;
289;SDS011;13193;48.874;9.086;2022-10-16T09:40:58;3.20;;;1.30;;
289;SDS011;13193;48.874;9.086;2022-10-16T09:43:26;3.13;;;1.40;;
289;SDS011;13193;48.874;9.086;2022-10-16T09:46:02;2.80;;;1.60;;
289;SDS011;13193;48.874;9.086;2022-10-16T09:48:31;7.13;;;1.40;;
289;SDS011;13193;48.874;9.086;2022-10-16T09:51:05;31.17;;;2.23;;
289;SDS011;13193;48.874;9.086;2022-10-16T09:53:41;7.80;;;1.57;;
289;SDS011;13193;48.874;9.086;2022-10-16T09:56:10;2.67;;;1.60;;
289;SDS011;13193;48.874;9.086;2022-10-16T09:58:41;3.00;;;1.10;;
289;SDS011;13193;48.874;9.086;2022-10-16T10:01:13;2.00;;;1.30;;
289;SDS011;13193;48.874;9.086;2022-10-16T10:03:41;3.57;;;1.50;;
289;SDS011;13193;48.874;9.086;2022-10-16T10:06:22;3.03;;;1.97;;
289;SDS011;13193;48.874;9.086;2022-10-16T10:12:20;2.53;;;1.30;;
289;SDS011;13193;48.874;9.086;2022-10-16T10:16:45;6.43;;;1.70;;
289;SDS011;13193;48.874;9.086;2022-10-16T10:19:18;7.43;;;1.70;;
289;SDS011;13193;48.874;9.086;2022-10-16T10:21:48;5.63;;;1.50;;
289;SDS011;13193;48.874;9.086;2022-10-16T10:24:18;4.87;;;1.50;;
289;SDS011;13193;48.874;9.086;2022-10-16T10:27:02;7.73;;;1.30;;
289;SDS011;13193;48.874;9.086;2022-10-16T10:35:23;4.20;;;2.10;;
289;SDS011;13193;48.874;9.086;2022-10-16T10:41:07;3.23;;;1.17;;
289;SDS011;13193;48.874;9.086;2022-10-16T10:46:23;3.07;;;1.40;;
289;SDS011;13193;48.874;9.086;2022-10-16T10:54:56;1.83;;;1.13;;
289;SDS011;13193;48.874;9.086;2022-10-16T11:03:27;2.27;;;1.30;;
289;SDS011;13193;48.874;9.086;2022-10-16T11:05:56;2.60;;;1.30;;
289;SDS011;13193;48.874;9.086;2022-10-16T11:22:19;2.83;;;1.57;;
289;SDS011;13193;48.874;9.086;2022-10-16T11:27:34;8.70;;;1.83;;
289;SDS011;13193;48.874;9.086;2022-10-16T11:30:06;6.90;;;1.70;;
289;SDS011;13193;48.874;9.086;2022-10-16T11:32:52;6.70;;;1.63;;
289;SDS011;13193;48.874;9.086;2022-10-16T11:35:39;8.83;;;1.77;;
289;SDS011;13193;48.874;9.086;2022-10-16T11:38:10;7.20;;;1.93;;
289;SDS011;13193;48.874;9.086;2022-10-16T11:40:50;7.93;;;1.93;;
289;SDS011;13193;48.874;9.086;2022-10-16T11:43:29;5.00;;;1.87;;
289;SDS011;13193;48.874;9.086;2022-10-16T11:46:04;11.13;;;3.93;;
289;SDS011;13193;48.874;9.086;2022-10-16T11:48:42;6.50;;;2.40;;
289;SDS011;13193;48.874;9.086;2022-10-16T11:51:15;3.90;;;1.70;;
289;SDS011;13193;48.874;9.086;2022-10-16T11:56:27;6.43;;;1.67;;
289;SDS011;13193;48.874;9.086;2022-10-16T11:59:00;3.63;;;1.90;;
289;SDS011;13193;48.874;9.086;2022-10-16T12:01:47;8.57;;;2.07;;
289;SDS011;13193;48.874;9.086;2022-10-16T12:04:26;3.43;;;1.30;;
289;SDS011;13193;48.874;9.086;2022-10-16T12:07:06;2.33;;;1.30;;
289;SDS011;13193;48.874;9.086;2022-10-16T12:09:37;3.13;;;1.47;;
289;SDS011;13193;48.874;9.086;2022-10-16T12:12:04;3.17;;;1.37;;
289;SDS011;13193;48.874;9.086;2022-10-16T12:14:48;3.10;;;1.60;;
289;SDS011;13193;48.874;9.086;2022-10-16T12:17:26;5.70;;;1.73;;
289;SDS011;13193;48.874;9.086;2022-10-16T12:20:12;11.27;;;1.40;;
289;SDS011;13193;48.874;9.086;2022-10-16T12:22:49;2.50;;;1.40;;
289;SDS011;13193;48.874;9.086;2022-10-16T12:25:25;5.23;;;1.77;;
289;SDS011;13193;48.874;9.086;2022-10-16T12:27:58;1.57;;;1.20;;
289;SDS011;13193;48.874;9.086;2022-10-16T12:30:26;2.67;;;1.60;;
289;SDS011;13193;48.874;9.086;2022-10-16T12:32:59;3.63;;;1.13;;
289;SDS011;13193;48.874;9.086;2022-10-16T12:35:31;2.00;;;1.30;;
289;SDS011;13193;48.874;9.086;2022-10-16T12:38:11;3.77;;;1.67;;
289;SDS011;13193;48.874;9.086;2022-10-16T12:40:38;3.70;;;1.03;;
289;SDS011;13193;48.874;9.086;2022-10-16T12:43:11;3.77;;;1.10;;
289;SDS011;13193;48.874;9.086;2022-10-16T12:45:38;5.50;;;1.50;;
289;SDS011;13193;48.874;9.086;2022-10-16T12:48:04;7.13;;;1.60;;
289;SDS011;13193;48.874;9.086;2022-10-16T12:50:46;6.23;;;1.60;;
289;SDS011;13193;48.874;9.086;2022-10-16T12:53:22;3.57;;;1.10;;
289;SDS011;13193;48.874;9.086;2022-10-16T12:58:49;3.53;;;1.60;;
289;SDS011;13193;48.874;9.086;2022-10-16T13:08:09;3.00;;;1.40;;
289;SDS011;13193;48.874;9.086;2022-10-16T13:13:47;2.40;;;1.50;;
289;SDS011;13193;48.874;9.086;2022-10-16T13:16:28;4.73;;;2.00;;
289;SDS011;13193;48.874;9.086;2022-10-16T13:21:51;3.33;;;1.93;;
289;SDS011;13193;48.874;9.086;2022-10-16T13:24:42;1.80;;;1.20;;
289;SDS011;13193;48.874;9.086;2022-10-16T13:29:52;5.77;;;1.77;;
289;SDS011;13193;48.874;9.086;2022-10-16T13:32:25;3.53;;;1.97;;
289;SDS011;13193;48.874;9.086;2022-10-16T13:34:52;4.80;;;1.63;;
289;SDS011;13193;48.874;9.086;2022-10-16T13:37:19;6.90;;;1.80;;
289;SDS011;13193;48.874;9.086;2022-10-16T13:39:47;3.23;;;1.80;;
289;SDS011;13193;48.874;9.086;2022-10-16T13:42:20;3.43;;;1.60;;
289;SDS011;13193;48.874;9.086;2022-10-16T13:44:51;1.73;;;1.13;;
289;SDS011;13193;48.874;9.086;2022-10-16T13:47:23;2.40;;;1.33;;
289;SDS011;13193;48.874;9.086;2022-10-16T13:50:04;2.70;;;1.53;;
289;SDS011;13193;48.874;9.086;2022-10-16T13:52:38;1.90;;;1.57;;
289;SDS011;13193;48.874;9.086;2022-10-16T13:55:04;7.63;;;2.03;;
289;SDS011;13193;48.874;9.086;2022-10-16T13:57:39;4.33;;;1.63;;
289;SDS011;13193;48.874;9.086;2022-10-16T14:00:17;6.50;;;2.10;;
289;SDS011;13193;48.874;9.086;2022-10-16T14:02:43;2.67;;;1.50;;
289;SDS011;13193;48.874;9.086;2022-10-16T14:05:09;5.70;;;1.80;;
289;SDS011;13193;48.874;9.086;2022-10-16T14:07:35;4.20;;;1.30;;
289;SDS011;13193;48.874;9.086;2022-10-16T14:10:06;3.97;;;1.43;;
289;SDS011;13193;48.874;9.086;2022-10-16T14:12:45;2.60;;;1.50;;
289;SDS011;13193;48.874;9.086;2022-10-16T14:15:19;3.53;;;1.37;;
289;SDS011;13193;48.874;9.086;2022-10-16T14:17:45;5.53;;;2.03;;
289;SDS011;13193;48.874;9.086;2022-10-16T14:20:16;4.43;;;2.00;;
289;SDS011;13193;48.874;9.086;2022-10-16T14:22:43;3.87;;;1.20;;
289;SDS011;13193;48.874;9.086;2022-10-16T14:25:30;8.63;;;1.87;;
289;SDS011;13193;48.874;9.086;2022-10-16T14:28:13;2.37;;;1.13;;
289;SDS011;13193;48.874;9.086;2022-10-16T14:30:58;3.30;;;1.60;;
289;SDS011;13193;48.874;9.086;2022-10-16T14:35:59;3.90;;;1.80;;
289;SDS011;13193;48.874;9.086;2022-10-16T14:38:30;7.90;;;1.50;;
289;SDS011;13193;48.874;9.086;2022-10-16T14:40:57;2.30;;;1.43;;
289;SDS011;13193;48.874;9.086;2022-10-16T14:43:31;3.33;;;1.47;;
289;SDS011;13193;48.874;9.086;2022-10-16T14:45:58;2.83;;;1.90;;
289;SDS011;13193;48.874;9.086;2022-10-16T14:48:24;7.90;;;1.83;;
289;SDS011;13193;48.874;9.086;2022-10-16T14:50:50;10.30;;;1.77;;
289;SDS011;13193;48.874;9.086;2022-10-16T14:53:16;9.73;;;2.27;;
289;SDS011;13193;48.874;9.086;2022-10-16T14:55:41;2.70;;;1.50;;
289;SDS011;13193;48.874;9.086;2022-10-16T14:58:15;4.00;;;2.10;;
289;SDS011;13193;48.874;9.086;2022-10-16T15:00:43;3.17;;;1.67;;
289;SDS011;13193;48.874;9.086;2022-10-16T15:03:09;4.30;;;1.47;;
289;SDS011;13193;48.874;9.086;2022-10-16T15:05:35;5.00;;;2.27;;
289;SDS011;13193;48.874;9.086;2022-10-16T15:08:00;2.20;;;1.53;;
289;SDS011;13193;48.874;9.086;2022-10-16T15:10:27;10.17;;;1.90;;
289;SDS011;13193;48.874;9.086;2022-10-16T15:12:53;3.33;;;1.60;;
289;SDS011;13193;48.874;9.086;2022-10-16T15:17:48;5.03;;;1.57;;
289;SDS011;13193;48.874;9.086;2022-10-16T15:20:17;3.17;;;1.90;;
289;SDS011;13193;48.874;9.086;2022-10-16T15:22:43;5.77;;;1.90;;
289;SDS011;13193;48.874;9.086;2022-10-16T15:25:24;7.43;;;2.13;;
289;SDS011;13193;48.874;9.086;2022-10-16T15:27:53;2.97;;;1.90;;
289;SDS011;13193;48.874;9.086;2022-10-16T15:30:19;7.20;;;2.70;;
289;SDS011;13193;48.874;9.086;2022-10-16T15:32:45;3.80;;;1.87;;
289;SDS011;13193;48.874;9.086;2022-10-16T15:35:10;3.30;;;1.50;;
289;SDS011;13193;48.874;9.086;2022-10-16T15:37:36;3.23;;;2.10;;
289;SDS011;13193;48.874;9.086;2022-10-16T15:40:02;6.37;;;2.37;;
289;SDS011;13193;48.874;9.086;2022-10-16T15:42:28;2.70;;;1.87;;
289;SDS011;13193;48.874;9.086;2022-10-16T15:44:53;5.27;;;2.80;;
289;SDS011;13193;48.874;9.086;2022-10-16T15:47:19;2.97;;;1.60;;
289;SDS011;13193;48.874;9.086;2022-10-16T15:49:44;3.20;;;1.60;;
289;SDS011;13193;48.874;9.086;2022-10-16T15:52:10;6.60;;;2.33;;
289;SDS011;13193;48.874;9.086;2022-10-16T15:54:36;4.67;;;1.60;;
289;SDS011;13193;48.874;9.086;2022-10-16T15:57:02;10.57;;;2.30;;
289;SDS011;13193;48.874;9.086;2022-10-16T15:59:28;5.67;;;2.10;;
289;SDS011;13193;48.874;9.086;2022-10-16T16:01:53;2.90;;;1.53;;
289;SDS011;13193;48.874;9.086;2022-10-16T16:04:19;4.53;;;1.50;;
289;SDS011;13193;48.874;9.086;2022-10-16T16:06:44;5.40;;;1.80;;
289;SDS011;13193;48.874;9.086;2022-10-16T16:09:11;2.37;;;1.33;;
289;SDS011;13193;48.874;9.086;2022-10-16T16:11:37;3.20;;;2.10;;
289;SDS011;13193;48.874;9.086;2022-10-16T16:14:04;3.07;;;1.77;;
289;SDS011;13193;48.874;9.086;2022-10-16T16:16:30;3.47;;;2.07;;
289;SDS011;13193;48.874;9.086;2022-10-16T16:19:01;4.33;;;1.80;;
289;SDS011;13193;48.874;9.086;2022-10-16T16:21:27;3.40;;;1.60;;
289;SDS011;13193;48.874;9.086;2022-10-16T16:23:53;3.10;;;1.93;;
289;SDS011;13193;48.874;9.086;2022-10-16T16:26:29;7.60;;;2.10;;
289;SDS011;13193;48.874;9.086;2022-10-16T16:29:00;4.60;;;2.00;;
289;SDS011;13193;48.874;9.086;2022-10-16T16:31:28;10.47;;;2.13;;
289;SDS011;13193;48.874;9.086;2022-10-16T16:33:55;8.97;;;2.30;;
289;SDS011;13193;48.874;9.086;2022-10-16T16:36:22;3.60;;;2.10;;
289;SDS011;13193;48.874;9.086;2022-10-16T16:38:49;5.03;;;2.20;;
289;SDS011;13193;48.874;9.086;2022-10-16T16:41:16;9.40;;;2.23;;
289;SDS011;13193;48.874;9.086;2022-10-16T16:43:44;12.43;;;2.93;;
289;SDS011;13193;48.874;9.086;2022-10-16T16:46:10;9.07;;;3.73;;
289;SDS011;13193;48.874;9.086;2022-10-16T16:48:37;12.70;;;3.90;;
289;SDS011;13193;48.874;9.086;2022-10-16T16:51:07;10.00;;;4.30;;
289;SDS011;13193;48.874;9.086;2022-10-16T16:53:40;23.07;;;5.00;;
289;SDS011;13193;48.874;9.086;2022-10-16T16:56:07;15.33;;;4.53;;
289;SDS011;13193;48.874;9.086;2022-10-16T16:58:33;11.30;;;4.20;;
289;SDS011;13193;48.874;9.086;2022-10-16T17:00:59;7.43;;;3.60;;
289;SDS011;13193;48.874;9.086;2022-10-16T17:03:33;13.60;;;4.10;;
289;SDS011;13193;48.874;9.086;2022-10-16T17:06:03;10.03;;;3.30;;
289;SDS011;13193;48.874;9.086;2022-10-16T17:08:31;8.83;;;2.97;;
289;SDS011;13193;48.874;9.086;2022-10-16T17:10:57;7.40;;;3.50;;
289;SDS011;13193;48.874;9.086;2022-10-16T17:13:23;10.87;;;4.37;;
289;SDS011;13193;48.874;9.086;2022-10-16T17:15:50;6.37;;;2.90;;
289;SDS011;13193;48.874;9.086;2022-10-16T17:18:17;5.97;;;3.60;;
289;SDS011;13193;48.874;9.086;2022-10-16T17:20:44;8.13;;;2.80;;
289;SDS011;13193;48.874;9.086;2022-10-16T17:23:11;6.87;;;3.10;;